Terminal Aerodrome Forecast
Issued by NWS Pittsburgh, PA

Home | Current Version | Previous Version | Text Only | Print | Product List | Glossary On
Versions: 1 2 3 4 5 6 7 8 9 10 11 12 13 14 15 16 17 18 19 20 21 22 23 24 25 26 27 28 29
000
FTUS41 KPBZ 081120
TAFPIT
TAF
KPIT 081120Z 0812/0918 15005KT P6SM SCT100
     FM081700 14005KT P6SM -RA OVC035
     FM082000 16005KT 3SM -RASN OVC020
     FM082200 20005KT 1 1/2SM -SN BR OVC010
     FM090600 22004KT 1SM -SN BR OVC008
     FM091500 27005KT 3SM -SHSN OVC010=

USA.gov is the U.S. government's official web portal to all federal, state and local government web resources and services.